Hinckley, Illinois
Current Conditions -  °F | °C
As of 3:52 PM on Sunday 25 Jan 2015 (Local Time) from KARR Reporting Station
Overcast Overcast  
Wind Chill: 14°   Ceiling: 3500
Heat Index: 28°   Visibility: 10mi
Dew Point: 18°   Wind: 22mph
Humidity: 66%   Direction: 30°NNE
Pressure: 29.88"   Gusts: NA
Location:  41.77°N, 88.64°W
Report Text: KARR 252152Z 03019KT 10SM OVC035 M02/M08 A2988 RMK AO2 PK WND 05030/2100 SLP125 T10221078 $
Loading
Personal Weather Stations






























Interactive Weather Map New forecast layout! Learn more

10-Day Weather Forecast

Advertisements
Track Severe Weather on mobile